Westview, KY

5:29 AM CDT on October 23, 2014 (GMT -0500)
Owensboro-Daviess County | Change Station
CLOSE
Current Station
Airport
Location: Owensboro,
Elevation: 407 ft
Nearby Weather Stations
Active Advisory: Frost Advisory

Elev 407 ft 37.74 °N, 87.17 °W | Updated 33 minutes ago

Clear
Clear
38 °F
Feels Like 38 °F
N
0
Wind Variable Wind from North

Today
High -- | Low -- °F
--% Chance of Precip.
Yesterday
High -- | Low -- °F
Precip. -- in
7:01 AM 5:57 PM
Waning Crescent, 0% visible
Pressure 30.25 in
Visibility 10.0 miles
Clouds Clear
Dew Point 37 °F
Humidity 96%
Rainfall 0.00 in
Snow Depth Not available.
UV 0 out of 12
Pollen 1.70 out of 12
Ozone Good
PM2.5 Moderate
Flu Activity Sporadic
METAR KOWB 230956Z AUTO 00000KT 10SM CLR 03/03 A3025 RMK AO2 TSNO T00330027 SLP243

More Conditions Fewer Conditions

Pressure 30.25 in
Visibility 10.0 miles
Clouds Clear
Dew Point 37 °F
Humidity 96%
Rainfall 0.00 in
Snow Depth Not available.
UV 0 out of 12
Pollen 1.70 out of 12
Ozone Good
PM2.5 Moderate
Flu Activity Sporadic
METAR KOWB 230956Z AUTO 00000KT 10SM CLR 03/03 A3025 RMK AO2 TSNO T00330027 SLP243

More Conditions Fewer Conditions

10-Day Weather Forecast

Almanac

Astronomy

Oct. 23, 2014 Rise Set
Actual Time 7:01 AM CDT 5:57 PM CDT
Civil Twilight 6:34 AM CDT 6:24 PM CDT
Nautical Twilight 6:04 AM CDT 6:54 PM CDT
Astronomical Twilight 5:33 AM CDT 7:25 PM CDT
Moon 6:41 AM CDT 5:58 PM CDT
Length of Visible Light 11h 49m
Length of Day
10h 56m
Tomorrow will be 2m 14s shorter.
Waning Crescent, 0% of the Moon is Illuminated
Today
Waning Crescent
Oct 23
New
Oct 30
First Quarter
Nov 6
Full
Nov 14
Last Quarter

Today's Extremes

State Highs State Lows

Community

WunderPhotos

Upload Photos

1,764,202 photos uploaded!

Nearby

Air Quality

  Air Quality AQ Index Pollutant
Yesterday Good
PM10
Yesterday Good
OZONE
Current Moderate
PM2.5
Current Good
OZONE
Thursday Moderate
PM2.5
Thursday Good
OZONE

Snow Depth

Station Depth Elevation
No new snow has been reported.

Earthquake Activity

City Distance Mag. Time & Date
No recent earthquake activity has been reported nearby.
Minimum magnitude displayed is 2.5.

Coastal Water Temperatures

Place Temperature
No Stations Reporting

Nearby Weather Stations